createdAt,value
2018-09-05T00:00:31.155Z,14.60
2018-09-05T00:03:00.128Z,16.23
2018-09-05T00:05:29.072Z,14.07
2018-09-05T00:07:58.369Z,14.03
2018-09-05T00:10:27.681Z,13.90
2018-09-05T00:12:56.867Z,14.17
2018-09-05T00:15:25.939Z,18.33
2018-09-05T00:17:55.201Z,14.27
2018-09-05T00:20:24.223Z,13.43
2018-09-05T00:22:53.593Z,14.10
2018-09-05T00:25:22.591Z,15.53
2018-09-05T00:27:51.974Z,15.80
2018-09-05T00:30:21.187Z,15.73
2018-09-05T00:32:50.173Z,16.87
2018-09-05T00:35:19.476Z,15.93
2018-09-05T00:37:48.664Z,16.40
2018-09-05T00:40:17.961Z,17.37
2018-09-05T00:42:47.472Z,16.53
2018-09-05T00:45:16.697Z,17.47
2018-09-05T00:47:45.888Z,19.17
2018-09-05T00:50:15.092Z,18.07
2018-09-05T00:52:44.364Z,20.07
2018-09-05T00:55:13.431Z,17.73
2018-09-05T00:57:42.817Z,16.40
2018-09-05T01:00:12.064Z,17.57
2018-09-05T01:02:41.503Z,17.73
2018-09-05T01:05:10.752Z,17.60
2018-09-05T01:07:39.990Z,17.50
2018-09-05T01:10:09.430Z,18.03
2018-09-05T01:12:38.338Z,17.27
2018-09-05T01:15:07.551Z,17.07
2018-09-05T01:17:36.936Z,16.77
2018-09-05T01:20:06.260Z,17.70
2018-09-05T01:22:35.627Z,16.47
2018-09-05T01:25:04.858Z,16.30
2018-09-05T01:27:33.994Z,17.33
2018-09-05T01:30:03.099Z,16.97
2018-09-05T01:32:32.344Z,15.50
2018-09-05T01:35:01.580Z,14.73
2018-09-05T01:37:30.776Z,14.83
2018-09-05T01:39:59.725Z,15.20
2018-09-05T01:42:29.059Z,14.67
2018-09-05T01:44:58.060Z,17.00
2018-09-05T01:47:27.357Z,14.53
2018-09-05T01:49:56.557Z,14.63
2018-09-05T01:52:25.703Z,14.10
2018-09-05T01:54:55.015Z,13.33
2018-09-05T01:57:24.221Z,12.50
2018-09-05T01:59:53.250Z,12.63
2018-09-05T02:02:22.456Z,12.87
2018-09-05T02:04:51.776Z,12.13
2018-09-05T02:07:20.671Z,13.07
2018-09-05T02:09:50.131Z,12.63
2018-09-05T02:12:19.308Z,11.67
2018-09-05T02:14:48.527Z,12.50
2018-09-05T02:17:17.710Z,11.53
2018-09-05T02:19:46.924Z,13.20
2018-09-05T02:22:16.452Z,12.37
2018-09-05T02:24:45.959Z,11.57
2018-09-05T02:27:15.420Z,11.87
2018-09-05T02:29:44.570Z,11.80
2018-09-05T02:32:13.801Z,11.23
2018-09-05T02:34:42.864Z,11.43
2018-09-05T02:37:12.218Z,11.03
2018-09-05T02:39:41.528Z,11.73
2018-09-05T02:42:10.813Z,12.77
2018-09-05T02:44:40.108Z,11.87
2018-09-05T02:47:09.507Z,12.53
2018-09-05T02:49:38.749Z,12.80
2018-09-05T02:52:07.708Z,13.03
2018-09-05T02:54:37.095Z,11.80
2018-09-05T02:57:06.435Z,12.70
2018-09-05T02:59:35.738Z,12.90
2018-09-05T03:02:04.707Z,12.10
2018-09-05T03:04:34.131Z,11.97
2018-09-05T03:07:03.273Z,11.90
2018-09-05T03:09:32.385Z,12.50
2018-09-05T03:12:01.736Z,12.17
2018-09-05T03:14:30.719Z,12.73
2018-09-05T03:17:00.151Z,12.10
2018-09-05T03:19:29.620Z,11.90
2018-09-05T03:21:58.672Z,12.40
2018-09-05T03:24:27.808Z,14.33
2018-09-05T03:26:57.203Z,12.07
2018-09-05T03:29:26.547Z,11.07
2018-09-05T03:31:55.889Z,11.93
2018-09-05T03:34:25.264Z,11.60
2018-09-05T03:36:54.612Z,11.63
2018-09-05T03:39:23.568Z,11.97
2018-09-05T03:41:52.694Z,11.83
2018-09-05T03:44:22.003Z,12.50
2018-09-05T03:46:51.317Z,12.77
2018-09-05T03:49:20.517Z,11.57
2018-09-05T03:51:49.803Z,12.10
2018-09-05T03:54:19.087Z,12.87
2018-09-05T03:56:48.116Z,12.40
2018-09-05T03:59:17.628Z,12.27
2018-09-05T04:01:46.897Z,11.77
2018-09-05T04:04:16.187Z,11.37
2018-09-05T04:06:45.482Z,11.40
2018-09-05T04:09:14.876Z,12.30
2018-09-05T04:11:43.770Z,13.67
2018-09-05T04:14:12.951Z,11.77
2018-09-05T04:16:42.280Z,11.70
2018-09-05T04:19:11.628Z,11.93
2018-09-05T04:21:40.779Z,11.97
2018-09-05T04:24:10.164Z,11.20
2018-09-05T04:26:39.361Z,11.27
2018-09-05T04:29:08.837Z,11.63
2018-09-05T04:31:37.707Z,11.93
2018-09-05T04:34:06.999Z,11.37
2018-09-05T04:36:36.432Z,13.23
2018-09-05T04:39:07.768Z,12.83
2018-09-05T04:41:37.003Z,12.03
2018-09-05T04:44:06.477Z,11.53
2018-09-05T04:46:35.879Z,11.10
2018-09-05T04:49:04.963Z,11.23
2018-09-05T04:51:35.661Z,12.47
2018-09-05T04:54:05.695Z,13.33
2018-09-05T04:56:35.096Z,12.87
2018-09-05T04:59:04.241Z,13.77
2018-09-05T05:01:33.528Z,13.40
2018-09-05T05:04:02.522Z,12.27
2018-09-05T05:06:31.717Z,13.73
2018-09-05T05:09:01.084Z,14.00
2018-09-05T05:11:30.175Z,14.40
2018-09-05T05:13:59.174Z,14.50
2018-09-05T05:16:28.201Z,14.20
2018-09-05T05:18:57.712Z,13.07
2018-09-05T05:21:27.066Z,10.33
2018-09-05T05:23:56.289Z,9.53
2018-09-05T05:26:25.253Z,9.23
2018-09-05T05:28:54.372Z,9.43
2018-09-05T05:31:23.388Z,10.77
2018-09-05T05:33:52.793Z,10.83
2018-09-05T05:36:22.032Z,9.30
2018-09-05T05:38:51.237Z,8.80
2018-09-05T05:41:20.660Z,8.20
2018-09-05T05:43:50.017Z,8.63
2018-09-05T05:46:19.303Z,8.40
2018-09-05T05:48:48.419Z,8.30
2018-09-05T05:51:17.272Z,8.93
2018-09-05T05:53:46.348Z,8.40
2018-09-05T05:56:15.661Z,8.80
2018-09-05T05:58:44.791Z,8.30
2018-09-05T06:01:14.035Z,9.30
2018-09-05T06:03:43.185Z,9.90
2018-09-05T06:06:12.721Z,9.07
2018-09-05T06:08:41.951Z,10.43
2018-09-05T06:11:11.397Z,7.63
2018-09-05T06:13:40.336Z,8.47
2018-09-05T06:16:09.641Z,8.70
2018-09-05T06:18:38.960Z,7.27
2018-09-05T06:21:08.360Z,7.10
2018-09-05T06:23:37.455Z,7.23
2018-09-05T06:26:07.110Z,7.03
2018-09-05T06:28:36.496Z,6.97
2018-09-05T06:31:06.042Z,6.80
2018-09-05T06:33:34.865Z,6.77
2018-09-05T06:36:04.244Z,5.97
2018-09-05T06:38:33.648Z,6.37
2018-09-05T06:41:02.952Z,6.17
2018-09-05T06:43:32.198Z,6.00
2018-09-05T06:46:01.093Z,6.60
2018-09-05T06:48:30.360Z,5.67
2018-09-05T06:51:03.280Z,6.50
2018-09-05T06:53:32.519Z,6.10
2018-09-05T06:56:01.791Z,7.90
2018-09-05T06:58:30.921Z,7.83
2018-09-05T07:01:00.388Z,6.60
2018-09-05T07:03:29.835Z,6.20
2018-09-05T07:05:59.025Z,6.40
2018-09-05T07:08:28.351Z,6.87
2018-09-05T07:10:57.611Z,5.87
2018-09-05T07:13:26.736Z,6.53
2018-09-05T07:15:55.852Z,5.97
2018-09-05T07:18:25.071Z,5.30
2018-09-05T07:21:05.682Z,5.23
2018-09-05T07:23:23.268Z,5.60
2018-09-05T07:25:52.272Z,6.50
2018-09-05T07:28:21.462Z,8.40
2018-09-05T07:30:50.687Z,5.90
2018-09-05T07:33:20.064Z,6.87
2018-09-05T07:35:49.339Z,7.50
2018-09-05T07:38:18.557Z,5.70
2018-09-05T07:40:47.875Z,5.47
2018-09-05T07:43:16.851Z,6.37
2018-09-05T07:45:46.248Z,4.90
2018-09-05T07:48:15.356Z,4.87
2018-09-05T07:50:44.599Z,3.97
2018-09-05T07:53:13.686Z,4.40
2018-09-05T07:55:42.698Z,6.07
2018-09-05T07:58:11.591Z,6.57
2018-09-05T08:00:40.635Z,7.63
2018-09-05T08:03:10.116Z,5.10
2018-09-05T08:05:39.240Z,4.53
2018-09-05T08:08:08.197Z,4.43
2018-09-05T08:10:37.640Z,4.37
2018-09-05T08:13:06.919Z,4.80
2018-09-05T08:15:36.312Z,4.13
2018-09-05T08:18:05.786Z,3.90
2018-09-05T08:20:35.113Z,4.13
2018-09-05T08:23:04.140Z,4.30
2018-09-05T08:25:33.392Z,3.63
2018-09-05T08:28:02.623Z,3.60
2018-09-05T08:30:31.867Z,3.60
2018-09-05T08:33:00.984Z,3.80
2018-09-05T08:35:30.665Z,3.77
2018-09-05T08:37:59.706Z,4.60
2018-09-05T08:40:29.037Z,3.50
2018-09-05T08:42:58.449Z,4.20
2018-09-05T08:45:28.095Z,4.00
2018-09-05T08:47:56.846Z,4.23
2018-09-05T08:50:26.138Z,3.97
2018-09-05T08:52:55.436Z,3.67
2018-09-05T08:55:24.437Z,3.40
2018-09-05T08:57:53.567Z,3.97
2018-09-05T09:00:22.771Z,3.80
2018-09-05T09:02:51.747Z,5.67
2018-09-05T09:05:20.815Z,4.50
2018-09-05T09:07:49.863Z,3.90
2018-09-05T09:10:19.431Z,3.53
2018-09-05T09:12:48.632Z,3.67
2018-09-05T09:15:17.902Z,3.60
2018-09-05T09:17:46.995Z,5.13
2018-09-05T09:20:16.044Z,3.40
2018-09-05T09:22:45.049Z,3.50
2018-09-05T09:25:14.517Z,3.87
2018-09-05T09:27:43.919Z,3.33
2018-09-05T09:30:13.300Z,3.33
2018-09-05T09:32:42.567Z,4.30
2018-09-05T09:35:11.888Z,3.37
2018-09-05T09:37:41.325Z,3.50
2018-09-05T09:40:10.636Z,3.47
2018-09-05T09:42:39.877Z,3.50
2018-09-05T09:45:09.273Z,5.13
2018-09-05T09:47:38.387Z,4.53
2018-09-05T09:50:07.640Z,2.93
2018-09-05T09:52:39.237Z,3.20
2018-09-05T09:55:09.388Z,3.43
2018-09-05T09:57:39.007Z,3.30
2018-09-05T10:00:08.620Z,3.40
2018-09-05T10:02:42.927Z,2.97
2018-09-05T10:05:17.221Z,4.70
2018-09-05T10:08:51.149Z,4.77
2018-09-05T10:11:24.542Z,3.00
2018-09-05T10:13:58.946Z,3.47
2018-09-05T10:16:33.391Z,3.00
2018-09-05T10:19:06.715Z,3.03
2018-09-05T10:21:35.744Z,2.80
2018-09-05T10:24:36.920Z,2.67
2018-09-05T10:27:06.228Z,2.80
2018-09-05T10:29:35.712Z,2.70
2018-09-05T10:32:04.944Z,2.93
2018-09-05T10:34:34.151Z,3.13
2018-09-05T10:37:03.555Z,3.70
2018-09-05T10:39:32.832Z,4.63
2018-09-05T10:42:02.055Z,4.83
2018-09-05T10:44:31.473Z,3.90
2018-09-05T10:47:00.906Z,3.40
2018-09-05T10:49:30.301Z,3.73
2018-09-05T10:52:07.072Z,2.90
2018-09-05T10:54:36.239Z,2.80
2018-09-05T10:57:05.749Z,2.87
2018-09-05T10:59:34.934Z,3.10
2018-09-05T11:02:04.097Z,3.10
2018-09-05T11:04:33.294Z,3.03
2018-09-05T11:07:02.233Z,2.60
2018-09-05T11:09:31.504Z,2.43
2018-09-05T11:12:00.758Z,2.40
2018-09-05T11:14:30.160Z,2.30
2018-09-05T11:16:59.507Z,2.30
2018-09-05T11:19:28.451Z,2.62
2018-09-05T11:21:57.711Z,2.50
2018-09-05T11:24:26.936Z,2.93
2018-09-05T11:26:56.204Z,2.13
2018-09-05T11:29:25.496Z,2.73
2018-09-05T11:31:54.851Z,2.47
2018-09-05T11:34:23.737Z,2.17
2018-09-05T11:36:52.998Z,2.70
2018-09-05T11:39:22.423Z,2.50
2018-09-05T11:41:51.680Z,2.63
2018-09-05T11:44:21.024Z,2.63
2018-09-05T11:46:49.915Z,2.80
2018-09-05T11:49:19.429Z,2.30
2018-09-05T11:51:48.639Z,2.70
2018-09-05T11:54:17.883Z,2.20
2018-09-05T11:56:47.243Z,2.80
2018-09-05T11:59:16.621Z,2.20
2018-09-05T12:01:45.731Z,2.27
2018-09-05T12:04:14.995Z,1.87
2018-09-05T12:06:44.523Z,2.37
2018-09-05T12:09:14.063Z,1.80
2018-09-05T12:11:43.004Z,7.57
2018-09-05T12:14:12.277Z,6.93
2018-09-05T12:16:41.813Z,5.73
2018-09-05T12:19:11.008Z,5.17
2018-09-05T12:21:40.271Z,5.53
2018-09-05T12:24:09.444Z,7.03
2018-09-05T12:26:38.426Z,6.13
2018-09-05T12:29:10.544Z,6.90
2018-09-05T12:31:40.308Z,3.80
2018-09-05T12:34:09.153Z,5.80
2018-09-05T12:36:38.440Z,4.80
2018-09-05T12:39:10.000Z,3.53
2018-09-05T12:41:39.488Z,4.53
2018-09-05T12:44:08.759Z,5.00
2018-09-05T12:46:38.265Z,5.87
2018-09-05T12:49:07.604Z,4.20
2018-09-05T12:51:36.651Z,4.50
2018-09-05T12:54:06.396Z,3.83
2018-09-05T12:56:35.729Z,4.13
2018-09-05T12:59:05.116Z,4.90
2018-09-05T13:01:34.588Z,4.83
2018-09-05T13:04:03.917Z,3.80
2018-09-05T13:06:32.971Z,3.90
2018-09-05T13:09:02.206Z,4.07
2018-09-05T13:11:31.197Z,3.57
2018-09-05T13:14:00.461Z,5.33
2018-09-05T13:16:29.822Z,5.53
2018-09-05T13:18:59.208Z,4.30
2018-09-05T13:21:28.553Z,3.73
2018-09-05T13:23:57.874Z,5.30
2018-09-05T13:26:27.051Z,4.57
2018-09-05T13:28:56.255Z,3.90
2018-09-05T13:31:25.525Z,4.30
2018-09-05T13:33:54.707Z,5.17
2018-09-05T13:36:23.748Z,4.40
2018-09-05T13:38:52.991Z,28.30
2018-09-05T13:41:22.142Z,17.90
2018-09-05T13:43:51.345Z,9.07
2018-09-05T13:46:20.747Z,7.33
2018-09-05T13:48:49.844Z,6.53
2018-09-05T13:51:18.997Z,5.00
2018-09-05T13:53:48.027Z,8.30
2018-09-05T13:56:17.187Z,7.90
2018-09-05T13:58:46.430Z,5.20
2018-09-05T14:01:15.757Z,4.23
2018-09-05T14:03:44.728Z,6.90
2018-09-05T14:06:14.009Z,5.23
2018-09-05T14:08:43.072Z,5.67
2018-09-05T14:11:12.474Z,5.57
2018-09-05T14:13:41.898Z,3.60
2018-09-05T14:16:10.979Z,4.00
2018-09-05T14:18:40.232Z,3.97
2018-09-05T14:21:09.556Z,4.27
2018-09-05T14:23:38.927Z,4.43
2018-09-05T14:26:08.296Z,4.93
2018-09-05T14:28:37.564Z,6.10
2018-09-05T14:31:06.887Z,5.43
2018-09-05T14:33:36.287Z,5.33
2018-09-05T14:36:05.636Z,4.70
2018-09-05T14:38:34.827Z,9.43
2018-09-05T14:41:03.967Z,5.43
2018-09-05T14:43:32.958Z,3.93
2018-09-05T14:46:02.268Z,4.10
2018-09-05T14:48:31.267Z,5.97
2018-09-05T14:51:00.455Z,5.93
2018-09-05T14:53:29.719Z,4.60
2018-09-05T14:55:59.067Z,4.67
2018-09-05T14:58:28.410Z,6.27
2018-09-05T15:00:57.904Z,6.47
2018-09-05T15:03:27.208Z,6.70
2018-09-05T15:05:56.671Z,7.57
2018-09-05T15:08:26.119Z,4.67
2018-09-05T15:10:55.132Z,5.70
2018-09-05T15:13:24.363Z,4.63
2018-09-05T15:15:53.761Z,5.43
2018-09-05T15:18:22.995Z,5.27
2018-09-05T15:20:52.135Z,4.60
2018-09-05T15:23:21.356Z,4.93
2018-09-05T15:25:50.303Z,4.17
2018-09-05T15:28:19.580Z,4.37
2018-09-05T15:30:48.839Z,4.53
2018-09-05T15:33:18.131Z,4.03
2018-09-05T15:35:47.448Z,4.47
2018-09-05T15:38:16.650Z,4.87
2018-09-05T15:40:46.101Z,4.23
2018-09-05T15:43:15.379Z,4.20
2018-09-05T15:45:44.854Z,4.17
2018-09-05T15:48:14.187Z,4.10
2018-09-05T15:50:43.535Z,3.80
2018-09-05T15:53:12.800Z,4.07
2018-09-05T15:55:41.981Z,4.37
2018-09-05T15:58:11.336Z,4.23
2018-09-05T16:00:40.556Z,4.80
2018-09-05T16:03:09.971Z,3.93
2018-09-05T16:05:39.168Z,4.77
2018-09-05T16:08:08.913Z,4.20
2018-09-05T16:10:38.568Z,4.50
2018-09-05T16:13:07.843Z,3.63
2018-09-05T16:15:37.175Z,4.10
2018-09-05T16:18:06.479Z,4.10
2018-09-05T16:20:35.688Z,3.90
2018-09-05T16:23:05.147Z,3.77
2018-09-05T16:25:34.171Z,4.77
2018-09-05T16:28:03.121Z,4.50
2018-09-05T16:30:32.373Z,4.50
2018-09-05T16:33:01.769Z,4.20
2018-09-05T16:35:31.084Z,4.67
2018-09-05T16:38:00.387Z,4.53
2018-09-05T16:40:29.830Z,4.00
2018-09-05T16:42:59.204Z,6.37
2018-09-05T16:45:29.123Z,4.63
2018-09-05T16:47:58.659Z,5.07
2018-09-05T16:50:27.799Z,7.10
2018-09-05T16:52:56.937Z,7.07
2018-09-05T16:55:26.388Z,5.50
2018-09-05T16:57:55.885Z,5.27
2018-09-05T17:00:25.108Z,6.50
2018-09-05T17:02:54.353Z,8.23
2018-09-05T17:05:23.687Z,8.50
2018-09-05T17:07:53.032Z,6.50
2018-09-05T17:10:22.469Z,7.60
2018-09-05T17:12:52.051Z,6.53
2018-09-05T17:15:21.436Z,9.10
2018-09-05T17:17:50.952Z,9.53
2018-09-05T17:20:20.311Z,9.87
2018-09-05T17:22:49.556Z,8.87
2018-09-05T17:25:18.472Z,9.67
2018-09-05T17:27:47.739Z,9.10
2018-09-05T17:30:17.032Z,8.20
2018-09-05T17:32:46.380Z,8.30
2018-09-05T17:35:15.462Z,7.67
2018-09-05T17:37:44.808Z,7.50
2018-09-05T17:40:14.132Z,7.53
2018-09-05T17:42:43.544Z,8.30
2018-09-05T17:45:12.931Z,10.10
2018-09-05T17:47:42.014Z,7.67
2018-09-05T17:50:11.310Z,8.07
2018-09-05T17:52:42.364Z,10.43
2018-09-05T17:55:11.386Z,9.97
2018-09-05T17:57:40.576Z,8.50
2018-09-05T18:00:08.775Z,7.27
2018-09-05T18:02:38.152Z,6.97
2018-09-05T18:05:07.447Z,8.30
2018-09-05T18:07:36.823Z,9.87
2018-09-05T18:10:06.163Z,10.70
2018-09-05T18:12:35.234Z,8.20
2018-09-05T18:15:04.758Z,6.97
2018-09-05T18:17:34.490Z,7.27
2018-09-05T18:20:03.872Z,10.90
2018-09-05T18:22:33.182Z,8.13
2018-09-05T18:25:02.186Z,8.53
2018-09-05T18:27:31.424Z,8.57
2018-09-05T18:30:00.407Z,10.63
2018-09-05T18:32:29.603Z,7.43
2018-09-05T18:34:59.082Z,6.53
2018-09-05T18:37:28.407Z,6.93
2018-09-05T18:39:57.908Z,8.10
2018-09-05T18:42:26.861Z,8.13
2018-09-05T18:44:56.164Z,8.17
2018-09-05T18:47:25.145Z,8.60
2018-09-05T18:49:54.619Z,8.90
2018-09-05T18:52:23.961Z,8.50
2018-09-05T18:54:53.049Z,9.00
2018-09-05T18:57:22.433Z,7.37
2018-09-05T18:59:51.645Z,7.70
2018-09-05T19:02:20.769Z,7.87
2018-09-05T19:04:50.407Z,8.50
2018-09-05T19:07:19.360Z,7.63
2018-09-05T19:09:48.689Z,7.63
2018-09-05T19:12:18.138Z,7.27
2018-09-05T19:14:47.195Z,7.87
2018-09-05T19:17:16.620Z,7.47
2018-09-05T19:19:45.693Z,6.90
2018-09-05T19:22:14.920Z,6.60
2018-09-05T19:24:44.575Z,8.40
2018-09-05T19:27:13.576Z,6.60
2018-09-05T19:29:42.732Z,7.50
2018-09-05T19:32:11.682Z,7.20
2018-09-05T19:34:41.114Z,8.93
2018-09-05T19:37:10.808Z,8.57
2018-09-05T19:39:40.530Z,8.27
2018-09-05T19:42:10.198Z,8.13
2018-09-05T19:44:39.371Z,8.57
2018-09-05T19:47:08.623Z,8.40
2018-09-05T19:49:37.779Z,7.93
2018-09-05T19:52:07.156Z,7.43
2018-09-05T19:54:36.459Z,7.60
2018-09-05T19:57:05.669Z,8.47
2018-09-05T19:59:34.967Z,8.73
2018-09-05T20:02:04.335Z,7.50
2018-09-05T20:04:33.532Z,6.97
2018-09-05T20:07:02.614Z,7.57
2018-09-05T20:09:31.681Z,8.00
2018-09-05T20:12:00.913Z,7.40
2018-09-05T20:14:30.035Z,7.80
2018-09-05T20:16:59.517Z,7.53
2018-09-05T20:19:28.988Z,8.03
2018-09-05T20:21:58.202Z,8.07
2018-09-05T20:24:27.538Z,7.33
2018-09-05T20:26:56.801Z,8.20
2018-09-05T20:29:26.011Z,9.20
2018-09-05T20:31:55.184Z,9.50
2018-09-05T20:34:24.299Z,10.27
2018-09-05T20:36:53.903Z,11.80
2018-09-05T20:39:23.221Z,10.43
2018-09-05T20:41:52.484Z,10.60
2018-09-05T20:44:21.745Z,10.97
2018-09-05T20:46:51.040Z,10.37
2018-09-05T20:49:20.045Z,10.70
2018-09-05T20:51:49.287Z,11.13
2018-09-05T20:54:18.675Z,11.40
2018-09-05T20:56:47.905Z,11.40
2018-09-05T20:59:17.167Z,12.40
2018-09-05T21:01:46.177Z,12.27
2018-09-05T21:04:15.523Z,11.87
2018-09-05T21:06:44.761Z,11.90
2018-09-05T21:09:14.031Z,12.87
2018-09-05T21:11:43.159Z,12.20
2018-09-05T21:14:12.051Z,12.73
2018-09-05T21:16:41.062Z,12.73
2018-09-05T21:19:10.394Z,11.53
2018-09-05T21:21:39.599Z,12.10
2018-09-05T21:24:08.761Z,11.70
2018-09-05T21:26:38.218Z,11.60
2018-09-05T21:29:07.395Z,12.67
2018-09-05T21:31:36.589Z,11.40
2018-09-05T21:34:05.543Z,11.43
2018-09-05T21:36:34.794Z,12.03
2018-09-05T21:39:04.880Z,11.47
2018-09-05T21:41:34.075Z,11.70
2018-09-05T21:44:03.313Z,11.50
2018-09-05T21:46:32.705Z,11.93
2018-09-05T21:49:02.083Z,11.20
2018-09-05T21:51:31.274Z,11.90
2018-09-05T21:54:00.427Z,10.60
2018-09-05T21:56:29.648Z,11.30
2018-09-05T21:58:59.123Z,11.30
2018-09-05T22:01:28.399Z,11.13
2018-09-05T22:03:57.715Z,11.07
2018-09-05T22:06:26.684Z,12.00
2018-09-05T22:08:55.971Z,11.20
2018-09-05T22:11:26.433Z,10.93
2018-09-05T22:13:56.456Z,11.00
2018-09-05T22:16:25.895Z,11.47
2018-09-05T22:18:54.851Z,11.20
2018-09-05T22:21:24.092Z,11.40
2018-09-05T22:23:53.556Z,11.30
2018-09-05T22:26:22.376Z,11.67
2018-09-05T22:28:51.724Z,10.90
2018-09-05T22:31:20.805Z,11.07
2018-09-05T22:33:49.988Z,11.30
2018-09-05T22:36:19.365Z,11.50
2018-09-05T22:38:48.336Z,12.30
2018-09-05T22:41:17.545Z,11.87
2018-09-05T22:43:57.419Z,11.23
2018-09-05T22:46:37.460Z,11.20
2018-09-05T22:49:57.746Z,11.50
2018-09-05T22:53:08.022Z,11.27
2018-09-05T22:55:53.238Z,11.30
2018-09-05T22:58:36.838Z,12.87
2018-09-05T23:02:18.321Z,11.97
2018-09-05T23:04:57.379Z,11.80
2018-09-05T23:07:37.649Z,12.23
2018-09-05T23:10:17.698Z,11.47
2018-09-05T23:12:57.488Z,12.87
2018-09-05T23:15:37.314Z,12.60
2018-09-05T23:18:18.315Z,11.87
2018-09-05T23:21:25.448Z,11.97
2018-09-05T23:23:57.585Z,11.97
2018-09-05T23:26:27.139Z,11.97
2018-09-05T23:28:56.339Z,12.43
2018-09-05T23:31:25.501Z,11.37
2018-09-05T23:33:54.972Z,11.40
2018-09-05T23:36:24.595Z,11.73
2018-09-05T23:38:53.872Z,12.23
2018-09-05T23:41:23.212Z,12.30
2018-09-05T23:43:52.356Z,11.43
2018-09-05T23:46:21.315Z,11.80
2018-09-05T23:48:50.980Z,11.70
2018-09-05T23:51:20.280Z,12.17
2018-09-05T23:53:49.302Z,11.37
2018-09-05T23:56:18.627Z,11.53
2018-09-05T23:58:48.051Z,11.70
